Time;durP1;ratioP1;P1;durP2;ratioP2;P2;SDS_P1;SDS_P2;PMS_P1;PMS_P2;Temp;Humidity;BMP_temperature;BMP_pressure;BME280_temperature;BME280_humidity;BME280_pressure;Samples;Min_cycle;Max_cycle;Signal;HPM_P1;HPM_P2
2021/09/08 00:00:43;;;;;;;10.60;9.20;;;17.70;99.90;;;;;;5129191;27;20191;-39
2021/09/08 00:03:09;;;;;;;10.10;8.57;;;17.60;99.90;;;;;;5129492;27;20629;-37
2021/09/08 00:05:35;;;;;;;11.10;8.87;;;17.50;99.90;;;;;;5127776;27;20585;-38
2021/09/08 00:08:01;;;;;;;9.97;8.90;;;17.50;99.90;;;;;;5117179;27;20230;-37
2021/09/08 00:10:27;;;;;;;13.77;9.97;;;17.40;99.90;;;;;;5129399;27;20933;-37
2021/09/08 00:12:52;;;;;;;10.87;9.20;;;17.30;99.90;;;;;;5129110;27;20429;-37
2021/09/08 00:15:18;;;;;;;12.03;9.20;;;17.40;99.90;;;;;;5128452;27;20592;-37
2021/09/08 00:17:44;;;;;;;11.10;9.40;;;17.30;99.90;;;;;;5127851;27;20276;-38
2021/09/08 00:20:11;;;;;;;13.20;8.73;;;17.30;99.90;;;;;;5111128;27;20201;-37
2021/09/08 00:22:38;;;;;;;11.90;10.03;;;17.30;99.90;;;;;;5117935;27;20197;-37
2021/09/08 00:25:06;;;;;;;14.60;9.10;;;17.30;99.90;;;;;;5129168;27;20421;-39
2021/09/08 00:27:32;;;;;;;10.50;8.90;;;17.30;99.90;;;;;;5128560;27;20775;-38
2021/09/08 00:29:58;;;;;;;13.17;10.00;;;17.10;99.90;;;;;;5128830;27;20526;-37
2021/09/08 00:32:24;;;;;;;11.97;9.60;;;17.10;99.90;;;;;;5128825;27;20508;-37
2021/09/08 00:34:49;;;;;;;11.60;9.53;;;17.10;99.90;;;;;;5129365;27;20435;-38
2021/09/08 00:37:15;;;;;;;10.80;9.20;;;17.00;99.90;;;;;;5117121;27;20200;-38
2021/09/08 00:39:41;;;;;;;10.47;8.30;;;17.00;99.90;;;;;;5128387;27;20194;-38
2021/09/08 00:42:09;;;;;;;11.77;9.57;;;16.90;99.90;;;;;;5108809;27;20270;-37
2021/09/08 00:44:34;;;;;;;12.40;9.60;;;16.80;99.90;;;;;;5128704;27;20182;-37
2021/09/08 00:47:00;;;;;;;10.07;8.83;;;16.90;99.90;;;;;;5128446;27;20481;-38
2021/09/08 00:49:25;;;;;;;14.33;9.90;;;16.80;99.90;;;;;;5128883;27;20191;-38
2021/09/08 00:51:52;;;;;;;10.40;9.10;;;16.80;99.90;;;;;;5124087;27;20187;-37
2021/09/08 00:54:20;;;;;;;10.33;9.17;;;16.70;99.90;;;;;;5124872;27;20211;-37
2021/09/08 00:56:48;;;;;;;10.70;9.60;;;16.80;99.90;;;;;;5127775;27;20451;-38
2021/09/08 00:59:14;;;;;;;10.70;9.57;;;16.70;99.90;;;;;;5128872;27;20718;-38
2021/09/08 01:01:40;;;;;;;10.43;9.33;;;16.70;99.90;;;;;;5128361;27;20469;-40
2021/09/08 01:04:06;;;;;;;14.27;10.60;;;16.60;99.90;;;;;;5128612;27;20428;-39
2021/09/08 01:06:32;;;;;;;12.00;9.80;;;16.60;99.90;;;;;;5122338;27;20984;-38
2021/09/08 01:08:58;;;;;;;9.67;8.40;;;16.60;99.90;;;;;;5121150;27;20214;-38
2021/09/08 01:11:23;;;;;;;11.90;8.87;;;16.50;99.90;;;;;;5128105;27;20417;-40
2021/09/08 01:13:49;;;;;;;10.57;9.47;;;16.50;99.90;;;;;;5127892;27;20814;-38
2021/09/08 01:16:15;;;;;;;10.07;8.80;;;16.40;99.90;;;;;;5123428;27;20183;-38
2021/09/08 01:18:44;;;;;;;9.70;8.50;;;16.40;99.90;;;;;;5126809;27;20191;-38
2021/09/08 01:21:10;;;;;;;9.40;8.50;;;16.30;99.90;;;;;;5126103;27;20202;-38
2021/09/08 01:23:36;;;;;;;10.80;8.53;;;16.30;99.90;;;;;;5118768;27;20424;-37
2021/09/08 01:26:05;;;;;;;10.30;9.20;;;16.30;99.90;;;;;;5121153;27;20216;-37
2021/09/08 01:28:31;;;;;;;11.27;10.00;;;16.30;99.90;;;;;;5127838;27;20515;-38
2021/09/08 01:30:58;;;;;;;11.47;9.63;;;16.20;99.90;;;;;;5128029;27;20645;-38
2021/09/08 01:33:24;;;;;;;10.33;9.20;;;16.10;99.90;;;;;;5127317;27;20409;-37
2021/09/08 01:35:49;;;;;;;10.53;9.13;;;16.10;99.90;;;;;;5127550;27;20435;-38
2021/09/08 01:38:16;;;;;;;10.40;9.07;;;16.00;99.90;;;;;;5118010;27;20191;-37
2021/09/08 01:40:42;;;;;;;11.43;9.60;;;16.00;99.90;;;;;;5123079;27;20191;-39
2021/09/08 01:43:08;;;;;;;13.10;10.37;;;16.00;99.90;;;;;;5127356;27;20445;-38
2021/09/08 01:45:33;;;;;;;9.23;8.30;;;16.00;99.90;;;;;;5127305;27;20432;-37
2021/09/08 01:47:59;;;;;;;12.47;10.10;;;16.00;99.90;;;;;;5127865;27;20203;-38
2021/09/08 01:50:25;;;;;;;10.80;9.10;;;15.90;99.90;;;;;;5108555;27;20708;-39
2021/09/08 01:52:51;;;;;;;13.20;9.10;;;15.90;99.90;;;;;;5117384;27;20179;-37
2021/09/08 01:55:17;;;;;;;12.20;9.40;;;15.90;99.90;;;;;;5120044;27;20417;-37
2021/09/08 01:57:44;;;;;;;12.40;10.00;;;15.80;99.90;;;;;;5126477;27;20620;-38
2021/09/08 02:00:12;;;;;;;9.70;8.70;;;15.80;99.90;;;;;;5127345;27;21170;-37
2021/09/08 02:02:38;;;;;;;10.57;9.30;;;15.80;99.90;;;;;;5127175;27;20435;-37
2021/09/08 02:05:04;;;;;;;10.90;9.30;;;15.70;99.90;;;;;;5127233;27;20409;-38
2021/09/08 02:07:30;;;;;;;12.90;9.57;;;15.80;99.90;;;;;;5117182;27;20305;-38
2021/09/08 02:09:56;;;;;;;11.40;9.10;;;15.80;99.90;;;;;;5126636;27;20417;-38
2021/09/08 02:12:22;;;;;;;10.00;9.00;;;15.80;99.90;;;;;;5112876;27;20700;-38
2021/09/08 02:14:48;;;;;;;10.63;9.53;;;15.80;99.90;;;;;;5127327;27;20797;-37
2021/09/08 02:17:13;;;;;;;9.77;8.33;;;15.80;99.90;;;;;;5125523;27;20194;-38
2021/09/08 02:19:39;;;;;;;10.70;9.60;;;15.80;99.90;;;;;;5127276;27;20179;-38
2021/09/08 02:22:05;;;;;;;10.63;9.47;;;15.80;99.90;;;;;;5121137;27;20187;-37
2021/09/08 02:24:30;;;;;;;10.50;9.10;;;15.70;99.90;;;;;;5117705;27;20198;-37
2021/09/08 02:26:56;;;;;;;10.40;9.00;;;15.70;99.90;;;;;;5126554;27;20219;-37
2021/09/08 02:29:22;;;;;;;10.03;8.80;;;15.70;99.90;;;;;;5127070;27;20187;-38
2021/09/08 02:31:47;;;;;;;12.27;9.10;;;15.70;99.90;;;;;;5126225;27;20183;-38
2021/09/08 02:34:13;;;;;;;10.87;9.77;;;15.60;99.90;;;;;;5127246;27;20343;-38
2021/09/08 02:36:38;;;;;;;12.23;9.87;;;15.70;99.90;;;;;;5125882;27;20216;-37
2021/09/08 02:39:06;;;;;;;13.77;9.13;;;15.60;99.90;;;;;;5122002;27;20182;-38
2021/09/08 02:41:32;;;;;;;11.30;9.63;;;15.60;99.90;;;;;;5126124;27;20179;-37
2021/09/08 02:43:57;;;;;;;12.00;9.50;;;15.60;99.90;;;;;;5126741;27;20503;-37
2021/09/08 02:46:23;;;;;;;11.60;10.27;;;15.60;99.90;;;;;;5126086;27;20205;-38
2021/09/08 02:48:49;;;;;;;10.57;8.80;;;15.50;99.90;;;;;;5126475;28;20254;-37
2021/09/08 02:51:14;;;;;;;12.90;10.60;;;15.50;99.90;;;;;;5126714;28;20843;-38
2021/09/08 02:53:40;;;;;;;12.40;9.60;;;15.50;99.90;;;;;;5118561;28;20242;-38
2021/09/08 02:56:06;;;;;;;10.50;9.23;;;15.40;99.90;;;;;;5125934;28;20975;-40
2021/09/08 02:58:31;;;;;;;14.73;11.47;;;15.50;99.90;;;;;;5108100;28;20187;-37
2021/09/08 03:00:57;;;;;;;13.27;10.40;;;15.40;99.90;;;;;;5127220;27;20576;-37
2021/09/08 03:03:23;;;;;;;13.27;10.93;;;15.50;99.90;;;;;;5130305;27;20295;-40
2021/09/08 03:05:50;;;;;;;12.20;10.60;;;15.70;99.90;;;;;;5130386;27;20507;-37
2021/09/08 03:08:16;;;;;;;12.60;11.03;;;15.80;99.90;;;;;;5121582;27;20697;-37
2021/09/08 03:10:43;;;;;;;12.57;10.47;;;15.80;99.90;;;;;;5129848;27;20806;-38
2021/09/08 03:13:17;;;;;;;11.50;9.53;;;15.70;99.90;;;;;;5127225;27;20440;-37
2021/09/08 03:15:44;;;;;;;14.53;11.33;;;15.60;99.90;;;;;;5118323;27;20412;-38
2021/09/08 03:18:10;;;;;;;13.47;10.40;;;15.70;99.90;;;;;;5128644;27;20945;-37
2021/09/08 03:20:36;;;;;;;11.70;10.17;;;15.60;99.90;;;;;;5130295;27;20674;-37
2021/09/08 03:23:02;;;;;;;13.00;10.70;;;15.50;99.90;;;;;;5103809;28;20289;-38
2021/09/08 03:25:28;;;;;;;14.07;10.97;;;15.50;99.90;;;;;;5127601;27;20421;-37
2021/09/08 03:27:55;;;;;;;12.03;10.73;;;15.40;99.90;;;;;;5129956;27;20467;-37
2021/09/08 03:30:21;;;;;;;14.40;12.30;;;15.50;99.90;;;;;;5130673;27;20416;-38
2021/09/08 03:32:46;;;;;;;12.73;10.60;;;15.50;99.90;;;;;;5129771;27;20417;-38
2021/09/08 03:35:12;;;;;;;12.73;10.90;;;15.50;99.90;;;;;;5129964;27;20186;-37
2021/09/08 03:37:38;;;;;;;11.53;10.33;;;15.60;99.90;;;;;;5125913;27;20192;-38
2021/09/08 03:40:05;;;;;;;12.60;10.43;;;15.60;99.90;;;;;;5124213;27;20191;-39
2021/09/08 03:42:31;;;;;;;13.57;10.23;;;15.60;99.90;;;;;;5129894;27;20344;-37
2021/09/08 03:44:57;;;;;;;12.93;11.33;;;15.50;99.90;;;;;;5111279;27;20421;-38
2021/09/08 03:47:23;;;;;;;15.30;10.87;;;15.50;99.90;;;;;;5129653;27;20256;-38
2021/09/08 03:49:49;;;;;;;13.33;10.67;;;15.40;99.90;;;;;;5129964;27;20416;-37
2021/09/08 03:52:18;;;;;;;12.90;10.80;;;15.40;99.90;;;;;;5129764;27;20384;-37
2021/09/08 03:54:44;;;;;;;12.17;10.60;;;15.40;99.90;;;;;;5112498;27;20221;-38
2021/09/08 03:57:10;;;;;;;11.73;10.50;;;15.40;99.90;;;;;;5129648;27;20416;-38
2021/09/08 03:59:36;;;;;;;13.17;10.40;;;15.40;99.90;;;;;;5129673;27;20990;-37
2021/09/08 04:02:01;;;;;;;13.40;9.97;;;15.40;99.90;;;;;;5129383;27;20183;-37
2021/09/08 04:04:27;;;;;;;12.10;9.60;;;15.40;99.90;;;;;;5110812;27;20420;-37
2021/09/08 04:06:53;;;;;;;13.63;9.63;;;15.20;99.90;;;;;;5129450;27;20517;-39
2021/09/08 04:09:18;;;;;;;13.10;11.70;;;15.20;99.90;;;;;;5116594;27;20215;-37
2021/09/08 04:11:44;;;;;;;12.07;10.47;;;15.20;99.90;;;;;;5128648;27;20179;-37
2021/09/08 04:14:10;;;;;;;12.27;11.00;;;15.30;99.90;;;;;;5127011;27;20188;-38
2021/09/08 04:16:36;;;;;;;11.83;10.20;;;15.30;99.90;;;;;;5112678;27;20786;-38
2021/09/08 04:19:02;;;;;;;11.60;10.50;;;15.20;99.90;;;;;;5129014;27;20599;-37
2021/09/08 04:21:27;;;;;;;12.30;11.00;;;15.20;99.90;;;;;;5129138;27;20282;-37
2021/09/08 04:23:53;;;;;;;11.07;9.70;;;15.20;99.90;;;;;;5120942;27;20481;-37
2021/09/08 04:26:19;;;;;;;13.40;10.77;;;15.20;99.90;;;;;;5128762;27;20357;-37
2021/09/08 04:28:45;;;;;;;11.10;9.90;;;15.10;99.90;;;;;;5113169;27;20647;-38
2021/09/08 04:31:11;;;;;;;11.80;10.00;;;15.10;99.90;;;;;;5090904;27;20449;-37
2021/09/08 04:33:36;;;;;;;12.20;10.73;;;15.20;99.90;;;;;;5128468;27;20629;-37
2021/09/08 04:36:03;;;;;;;12.43;11.00;;;15.10;99.90;;;;;;5128876;27;20753;-38
2021/09/08 04:38:29;;;;;;;13.73;11.17;;;15.10;99.90;;;;;;5123098;27;20192;-37
2021/09/08 04:40:55;;;;;;;16.93;10.70;;;15.10;99.90;;;;;;5123400;27;20508;-38
2021/09/08 04:43:21;;;;;;;16.10;11.53;;;15.00;99.90;;;;;;5124152;27;20435;-37
2021/09/08 04:45:47;;;;;;;11.70;10.23;;;15.00;99.90;;;;;;5129094;27;20543;-37
2021/09/08 04:48:13;;;;;;;15.50;11.27;;;15.00;99.90;;;;;;5128122;27;20203;-37
2021/09/08 04:50:39;;;;;;;13.60;10.10;;;15.10;99.90;;;;;;5129031;27;20234;-37
2021/09/08 04:53:05;;;;;;;15.77;10.70;;;15.10;99.90;;;;;;5125134;27;20500;-38
2021/09/08 04:55:31;;;;;;;13.07;10.83;;;15.30;99.90;;;;;;5121817;27;20539;-37
2021/09/08 04:57:56;;;;;;;15.10;11.20;;;15.30;99.90;;;;;;5128285;27;20477;-38
2021/09/08 05:00:22;;;;;;;13.80;11.33;;;15.40;99.90;;;;;;5128765;27;20990;-38
2021/09/08 05:02:48;;;;;;;12.20;10.67;;;15.40;99.90;;;;;;5127787;27;20747;-37
2021/09/08 05:05:13;;;;;;;13.57;11.70;;;15.30;99.90;;;;;;5128636;27;20187;-38
2021/09/08 05:07:39;;;;;;;10.83;9.50;;;15.30;99.90;;;;;;5127787;27;20242;-38
2021/09/08 05:10:05;;;;;;;12.80;11.03;;;15.20;99.90;;;;;;5118184;27;20263;-38
2021/09/08 05:12:31;;;;;;;13.57;11.03;;;15.20;99.90;;;;;;5127663;27;20601;-37
2021/09/08 05:14:57;;;;;;;13.23;10.80;;;15.10;99.90;;;;;;5119193;27;20413;-37
2021/09/08 05:17:23;;;;;;;12.23;10.93;;;15.20;99.90;;;;;;5113554;27;20791;-37
2021/09/08 05:19:48;;;;;;;17.30;12.27;;;15.20;99.90;;;;;;5128185;27;20187;-37
2021/09/08 05:22:14;;;;;;;14.63;11.57;;;15.20;99.90;;;;;;5127788;27;20348;-38
2021/09/08 05:24:40;;;;;;;13.37;11.63;;;15.20;99.90;;;;;;5119311;27;20214;-38
2021/09/08 05:27:06;;;;;;;13.50;11.40;;;15.10;99.90;;;;;;5125655;27;20201;-37
2021/09/08 05:29:31;;;;;;;15.93;12.03;;;15.00;99.90;;;;;;5126855;27;20416;-38
2021/09/08 05:31:57;;;;;;;14.17;12.00;;;15.10;99.90;;;;;;5127186;27;20357;-37
2021/09/08 05:34:23;;;;;;;15.90;12.70;;;15.20;99.90;;;;;;5127964;27;20248;-39
2021/09/08 05:36:48;;;;;;;13.20;11.80;;;15.30;99.90;;;;;;5109137;27;20584;-37
2021/09/08 05:39:14;;;;;;;14.70;12.77;;;15.40;99.90;;;;;;5118882;27;20199;-37
2021/09/08 05:41:40;;;;;;;14.13;12.63;;;15.50;99.90;;;;;;5124272;27;20218;-37
2021/09/08 05:44:06;;;;;;;16.40;12.73;;;15.60;99.90;;;;;;5103692;27;20539;-37
2021/09/08 05:46:31;;;;;;;18.00;12.30;;;15.60;99.90;;;;;;5127347;27;20424;-38
2021/09/08 05:48:58;;;;;;;13.57;11.77;;;15.70;99.90;;;;;;5127482;27;20246;-37
2021/09/08 05:51:24;;;;;;;13.10;11.20;;;15.70;99.90;;;;;;5127174;27;20218;-37
2021/09/08 05:53:49;;;;;;;13.30;10.90;;;15.70;99.90;;;;;;5121475;27;20805;-37
2021/09/08 05:56:15;;;;;;;14.20;12.27;;;15.70;99.90;;;;;;5122556;27;20187;-38
2021/09/08 05:58:40;;;;;;;13.50;11.87;;;15.80;99.90;;;;;;5127627;27;20275;-38
2021/09/08 06:01:06;;;;;;;12.97;11.60;;;15.90;99.90;;;;;;5126798;27;20244;-38
2021/09/08 06:03:32;;;;;;;13.07;10.80;;;16.00;99.90;;;;;;5127089;27;20580;-37
2021/09/08 06:05:57;;;;;;;14.87;12.03;;;16.10;99.90;;;;;;5126959;27;20205;-38
2021/09/08 06:08:23;;;;;;;13.40;11.43;;;16.20;99.90;;;;;;5089982;27;20218;-38
2021/09/08 06:10:50;;;;;;;16.80;11.80;;;16.20;99.90;;;;;;5119679;27;20224;-38
2021/09/08 06:13:16;;;;;;;14.10;11.10;;;16.40;99.90;;;;;;5122789;27;20179;-37
2021/09/08 06:15:41;;;;;;;13.13;11.40;;;16.50;99.90;;;;;;5111175;27;20425;-37
2021/09/08 06:18:07;;;;;;;15.03;11.47;;;16.70;99.90;;;;;;5116417;27;20213;-38
2021/09/08 06:20:33;;;;;;;13.47;10.90;;;16.70;99.90;;;;;;5127005;27;20191;-39
2021/09/08 06:22:59;;;;;;;12.10;10.80;;;16.90;99.90;;;;;;5127047;27;20186;-37
2021/09/08 06:25:25;;;;;;;13.57;11.00;;;16.90;99.90;;;;;;5111846;27;20436;-37
2021/09/08 06:27:51;;;;;;;14.67;10.87;;;17.00;99.90;;;;;;5108502;27;20661;-38
2021/09/08 06:30:16;;;;;;;13.17;10.73;;;17.10;99.90;;;;;;5126996;27;20417;-38
2021/09/08 06:32:42;;;;;;;13.23;11.63;;;17.20;99.90;;;;;;5126722;27;20236;-38
2021/09/08 06:35:08;;;;;;;11.37;10.17;;;17.40;99.90;;;;;;5126648;27;20261;-37
2021/09/08 06:37:34;;;;;;;13.87;10.60;;;17.50;99.90;;;;;;5126500;27;20266;-37
2021/09/08 06:39:59;;;;;;;13.03;10.80;;;17.70;99.90;;;;;;5117715;27;20441;-37
2021/09/08 06:42:25;;;;;;;15.27;11.30;;;17.80;99.90;;;;;;5126520;27;20754;-38
2021/09/08 06:44:54;;;;;;;12.33;10.80;;;18.00;99.90;;;;;;5126980;27;20194;-38
2021/09/08 06:47:20;;;;;;;12.60;11.30;;;18.10;99.90;;;;;;5126375;27;20603;-37
2021/09/08 06:49:48;;;;;;;13.77;11.27;;;18.30;99.90;;;;;;5126867;28;20798;-37
2021/09/08 06:52:13;;;;;;;12.93;11.20;;;18.30;99.90;;;;;;5126368;28;20416;-38
2021/09/08 06:54:39;;;;;;;13.80;10.77;;;18.50;99.90;;;;;;5101830;28;20432;-40
2021/09/08 06:57:05;;;;;;;16.40;12.23;;;18.60;99.90;;;;;;5120648;28;20260;-38
2021/09/08 06:59:30;;;;;;;15.00;10.87;;;18.70;99.90;;;;;;5123981;28;20172;-37
2021/09/08 07:01:56;;;;;;;11.80;10.43;;;18.70;99.90;;;;;;5126387;28;20187;-38
2021/09/08 07:04:22;;;;;;;15.30;10.50;;;18.90;99.90;;;;;;5126702;28;20228;-38
2021/09/08 07:06:47;;;;;;;13.30;11.23;;;18.90;99.90;;;;;;5126452;28;20193;-37
2021/09/08 07:09:13;;;;;;;17.13;13.10;;;19.00;99.90;;;;;;5121697;28;20218;-37
2021/09/08 07:11:39;;;;;;;13.20;10.70;;;19.00;99.90;;;;;;5120097;28;20250;-38
2021/09/08 07:14:05;;;;;;;14.43;11.10;;;19.10;99.90;;;;;;5125830;28;20175;-40
2021/09/08 07:16:30;;;;;;;12.60;11.30;;;19.10;99.90;;;;;;5125188;28;20218;-37
2021/09/08 07:18:56;;;;;;;15.50;10.97;;;19.10;99.90;;;;;;5126157;28;20240;-37
2021/09/08 07:21:22;;;;;;;15.67;11.23;;;19.10;99.90;;;;;;5126533;28;20187;-37
2021/09/08 07:23:48;;;;;;;11.60;10.40;;;19.10;99.90;;;;;;5126139;28;20419;-37
2021/09/08 07:26:13;;;;;;;18.10;12.07;;;19.20;99.90;;;;;;5114545;28;20386;-37
2021/09/08 07:28:39;;;;;;;16.47;11.60;;;19.20;99.90;;;;;;5125760;28;20828;-37
2021/09/08 07:31:05;;;;;;;13.20;11.53;;;19.30;99.90;;;;;;5126499;28;20194;-37
2021/09/08 07:33:31;;;;;;;13.80;11.60;;;19.40;99.90;;;;;;5126025;28;20179;-37
2021/09/08 07:35:57;;;;;;;13.43;10.60;;;19.40;99.90;;;;;;5126053;28;20270;-38
2021/09/08 07:38:24;;;;;;;12.13;10.67;;;19.40;99.90;;;;;;5126196;28;20990;-37
2021/09/08 07:40:50;;;;;;;13.60;10.60;;;19.50;99.90;;;;;;5116787;28;20290;-37
2021/09/08 07:43:18;;;;;;;13.97;11.00;;;19.60;99.90;;;;;;5125332;28;20546;-37
2021/09/08 07:45:44;;;;;;;13.40;11.40;;;19.70;99.90;;;;;;5125899;28;20258;-37
2021/09/08 07:48:09;;;;;;;15.20;12.00;;;19.80;99.90;;;;;;5128597;27;20551;-37
2021/09/08 07:50:35;;;;;;;12.10;10.70;;;19.80;99.90;;;;;;5129861;27;20457;-37
2021/09/08 07:53:04;;;;;;;13.70;11.10;;;19.90;99.90;;;;;;5129858;27;20191;-38
2021/09/08 07:55:30;;;;;;;12.77;11.20;;;19.90;99.90;;;;;;5119970;27;20180;-37
2021/09/08 07:57:56;;;;;;;12.90;11.60;;;20.00;99.90;;;;;;5126494;27;20674;-37
2021/09/08 08:00:22;;;;;;;15.00;10.97;;;20.00;99.90;;;;;;5126132;27;20449;-37
2021/09/08 08:02:49;;;;;;;12.60;11.30;;;20.10;99.90;;;;;;5129320;27;20416;-37
2021/09/08 08:05:15;;;;;;;12.73;11.17;;;20.10;99.90;;;;;;5129542;27;20186;-38
2021/09/08 08:07:46;;;;;;;15.07;11.97;;;20.20;99.90;;;;;;5129012;27;20477;-37
2021/09/08 08:10:13;;;;;;;16.63;12.53;;;20.20;99.90;;;;;;5120392;27;20791;-37
2021/09/08 08:12:39;;;;;;;12.80;11.50;;;20.30;99.90;;;;;;5127809;27;20862;-37
2021/09/08 08:15:07;;;;;;;16.83;12.50;;;20.30;99.90;;;;;;5129231;27;20448;-37
2021/09/08 08:17:34;;;;;;;12.80;11.50;;;20.30;99.90;;;;;;5127868;27;20183;-37
2021/09/08 08:19:59;;;;;;;13.27;11.43;;;20.30;99.90;;;;;;5129543;27;20482;-38
2021/09/08 08:22:25;;;;;;;13.53;10.57;;;20.40;99.90;;;;;;5129000;27;20428;-37
2021/09/08 08:24:51;;;;;;;13.37;12.07;;;20.40;99.90;;;;;;5123968;27;20478;-37
2021/09/08 08:27:17;;;;;;;12.37;11.07;;;20.50;99.90;;;;;;5103208;28;20192;-37
2021/09/08 08:29:43;;;;;;;14.27;11.50;;;20.50;99.90;;;;;;5128873;27;20187;-37
2021/09/08 08:32:09;;;;;;;12.47;11.17;;;20.60;99.90;;;;;;5129048;27;20613;-38
2021/09/08 08:34:35;;;;;;;12.90;10.93;;;20.60;99.90;;;;;;5129146;27;21010;-37
2021/09/08 08:37:00;;;;;;;13.00;11.23;;;20.70;99.90;;;;;;5110207;27;20511;-37
2021/09/08 08:39:26;;;;;;;14.20;11.53;;;20.70;99.90;;;;;;5109482;27;20186;-38
2021/09/08 08:41:51;;;;;;;12.30;11.10;;;20.70;99.90;;;;;;5113575;27;20233;-37
2021/09/08 08:44:24;;;;;;;15.43;11.23;;;20.80;99.90;;;;;;5128788;27;20195;-36
2021/09/08 08:46:51;;;;;;;12.33;10.80;;;20.90;99.90;;;;;;5128688;27;20552;-37
2021/09/08 08:49:20;;;;;;;13.00;11.70;;;20.90;99.90;;;;;;5128844;27;20572;-37
2021/09/08 08:51:46;;;;;;;12.60;11.40;;;21.00;99.90;;;;;;5128256;27;20771;-37
2021/09/08 08:54:12;;;;;;;11.47;10.30;;;21.00;99.90;;;;;;5128876;27;20412;-39
2021/09/08 08:56:38;;;;;;;13.00;11.63;;;21.10;99.90;;;;;;5097527;27;20440;-37
2021/09/08 08:59:03;;;;;;;16.70;12.23;;;21.10;99.90;;;;;;5127237;27;20191;-37
2021/09/08 09:01:32;;;;;;;12.33;11.13;;;21.20;99.90;;;;;;5128305;27;20269;-37
2021/09/08 09:04:06;;;;;;;16.97;12.30;;;21.30;99.90;;;;;;5128736;27;20224;-37
2021/09/08 09:06:42;;;;;;;12.90;11.60;;;21.40;99.90;;;;;;5109548;27;20438;-37
2021/09/08 09:09:19;;;;;;;13.60;12.13;;;21.50;99.90;;;;;;5128575;27;20524;-37
2021/09/08 09:11:48;;;;;;;12.43;10.20;;;21.60;99.90;;;;;;5114421;27;20653;-37
2021/09/08 09:14:15;;;;;;;12.10;10.90;;;21.70;99.90;;;;;;5125113;27;20853;-37
2021/09/08 09:16:42;;;;;;;14.60;11.60;;;21.80;99.90;;;;;;5106024;28;20418;-37
2021/09/08 09:19:10;;;;;;;14.63;10.73;;;21.90;99.90;;;;;;5116068;27;20659;-37
2021/09/08 09:21:36;;;;;;;12.97;10.73;;;22.00;99.90;;;;;;5128035;27;20515;-37
2021/09/08 09:24:04;;;;;;;11.87;10.10;;;22.10;99.90;;;;;;5128147;27;20428;-37
2021/09/08 09:26:32;;;;;;;13.60;10.77;;;22.20;99.90;;;;;;5116171;27;20429;-37
2021/09/08 09:29:17;;;;;;;12.17;10.70;;;22.30;99.90;;;;;;5105043;28;20489;-37
2021/09/08 09:32:01;;;;;;;11.50;10.30;;;22.50;99.90;;;;;;5127209;27;20420;-37
2021/09/08 09:34:29;;;;;;;14.07;10.27;;;22.60;99.90;;;;;;5128203;27;20436;-37
2021/09/08 09:36:58;;;;;;;11.87;10.77;;;22.70;99.90;;;;;;5127607;27;20421;-38
2021/09/08 09:39:29;;;;;;;11.67;10.57;;;22.80;99.90;;;;;;5109614;27;20516;-37
2021/09/08 09:41:59;;;;;;;11.83;10.63;;;23.00;99.90;;;;;;5117718;27;20687;-37
2021/09/08 09:44:30;;;;;;;12.00;10.90;;;23.10;99.90;;;;;;5127902;27;20500;-37
2021/09/08 09:46:56;;;;;;;11.20;10.07;;;23.10;99.90;;;;;;5127805;27;20872;-37
2021/09/08 09:49:21;;;;;;;13.43;11.13;;;23.20;99.90;;;;;;5127664;27;20490;-37
2021/09/08 09:51:47;;;;;;;12.60;11.40;;;23.30;99.90;;;;;;5127594;27;20183;-37
2021/09/08 09:54:15;;;;;;;13.47;10.70;;;23.30;99.90;;;;;;5127713;27;20179;-37
2021/09/08 09:56:41;;;;;;;10.80;9.80;;;23.50;99.90;;;;;;5099177;27;20243;-37
2021/09/08 09:59:07;;;;;;;12.87;11.40;;;23.50;99.90;;;;;;5127793;27;20444;-37
2021/09/08 10:01:33;;;;;;;11.80;10.70;;;23.70;99.90;;;;;;5126746;27;20416;-38
2021/09/08 10:03:59;;;;;;;11.50;10.50;;;23.80;99.90;;;;;;5127642;27;20425;-36
2021/09/08 10:06:25;;;;;;;14.20;11.00;;;23.90;99.90;;;;;;5127213;27;20190;-36
2021/09/08 10:08:58;;;;;;;14.07;11.53;;;24.00;99.90;;;;;;5127433;27;20460;-37
2021/09/08 10:11:32;;;;;;;11.97;10.90;;;24.00;99.90;;;;;;5114753;27;20188;-37
2021/09/08 10:14:10;;;;;;;13.30;10.27;;;24.10;99.90;;;;;;5126216;27;20787;-38
2021/09/08 10:16:36;;;;;;;11.90;10.80;;;24.20;99.90;;;;;;5123809;27;20416;-37
2021/09/08 10:19:06;;;;;;;11.40;10.30;;;24.30;99.90;;;;;;5126935;27;20425;-37
2021/09/08 10:21:33;;;;;;;11.93;10.83;;;24.30;99.90;;;;;;5126324;27;20922;-37
2021/09/08 10:24:03;;;;;;;12.67;10.80;;;24.40;99.90;;;;;;5127547;27;20877;-37
2021/09/08 10:26:33;;;;;;;11.20;10.10;;;24.40;99.90;;;;;;5115442;27;20441;-37
2021/09/08 10:29:06;;;;;;;12.20;11.10;;;24.40;99.90;;;;;;5124676;27;20489;-37
2021/09/08 10:31:41;;;;;;;14.03;10.87;;;24.50;99.90;;;;;;5126487;27;20939;-37
2021/09/08 10:34:07;;;;;;;11.03;10.03;;;24.60;99.90;;;;;;5113169;27;20413;-37
2021/09/08 10:36:38;;;;;;;11.47;10.27;;;24.70;99.90;;;;;;5126353;27;20800;-37
2021/09/08 10:39:11;;;;;;;11.60;10.50;;;24.70;99.90;;;;;;5127015;27;20424;-37
2021/09/08 10:42:03;;;;;;;11.47;10.37;;;24.70;99.90;;;;;;5116454;27;20888;-37
2021/09/08 10:44:41;;;;;;;10.97;9.93;;;24.80;99.90;;;;;;5119860;27;20862;-36
2021/09/08 10:47:06;;;;;;;10.83;9.93;;;24.90;99.90;;;;;;5112907;28;20832;-37
2021/09/08 10:49:39;;;;;;;11.80;10.70;;;24.90;99.90;;;;;;5126726;27;20608;-37
2021/09/08 10:52:08;;;;;;;10.30;9.30;;;25.00;99.90;;;;;;5126450;28;20178;-37
2021/09/08 10:54:54;;;;;;;11.07;10.07;;;25.10;99.90;;;;;;5126730;28;21059;-37
2021/09/08 10:57:44;;;;;;;10.30;9.40;;;25.20;99.90;;;;;;5113482;28;20448;-38
2021/09/08 11:00:29;;;;;;;9.93;9.00;;;25.20;99.90;;;;;;5121465;28;20812;-37
2021/09/08 11:02:55;;;;;;;9.50;8.70;;;25.30;99.90;;;;;;5125959;28;20938;-37
2021/09/08 11:05:21;;;;;;;9.30;8.50;;;25.30;99.90;;;;;;5108007;28;20420;-37
2021/09/08 11:07:48;;;;;;;10.50;9.53;;;25.40;99.90;;;;;;5125911;28;20265;-37
2021/09/08 11:10:27;;;;;;;10.13;9.13;;;25.40;99.90;;;;;;5126377;28;20189;-37
2021/09/08 11:12:55;;;;;;;11.83;9.40;;;25.40;99.90;;;;;;5121639;28;20432;-37
2021/09/08 11:15:31;;;;;;;9.60;8.80;;;25.40;99.90;;;;;;5108060;28;20495;-37
2021/09/08 11:17:57;;;;;;;9.20;8.40;;;25.40;99.30;;;;;;5112550;28;20420;-37
2021/09/08 11:20:23;;;;;;;8.90;8.20;;;25.40;99.00;;;;;;5126434;28;20914;-37
2021/09/08 11:23:09;;;;;;;8.83;8.03;;;25.40;98.30;;;;;;5128445;27;20182;-37
2021/09/08 11:25:40;;;;;;;8.73;7.93;;;25.40;99.20;;;;;;5130427;27;20453;-37
2021/09/08 11:28:07;;;;;;;8.83;8.00;;;25.50;97.80;;;;;;5123719;27;20464;-37
2021/09/08 11:30:38;;;;;;;8.63;7.93;;;25.50;97.90;;;;;;5129275;27;20477;-37
2021/09/08 11:33:14;;;;;;;9.30;8.50;;;25.50;97.70;;;;;;5129944;27;21078;-37
2021/09/08 11:35:44;;;;;;;9.23;8.30;;;25.60;99.00;;;;;;5111150;27;20420;-37
2021/09/08 11:38:20;;;;;;;9.53;8.53;;;25.60;97.80;;;;;;5130572;27;20507;-38
2021/09/08 11:40:51;;;;;;;9.63;8.70;;;25.60;98.30;;;;;;5129481;27;20435;-37
2021/09/08 11:43:30;;;;;;;9.03;8.30;;;25.60;98.70;;;;;;5117235;27;20497;-37
2021/09/08 11:45:56;;;;;;;9.50;8.57;;;25.60;98.00;;;;;;5122754;27;20503;-38
2021/09/08 11:48:31;;;;;;;9.40;8.50;;;25.70;98.10;;;;;;5130518;27;20459;-37
2021/09/08 11:51:05;;;;;;;8.87;8.07;;;25.60;97.70;;;;;;5129827;27;20178;-37
2021/09/08 11:53:31;;;;;;;9.70;8.90;;;25.60;97.70;;;;;;5129708;27;20527;-37
2021/09/08 11:56:09;;;;;;;8.43;7.70;;;25.60;98.20;;;;;;5129499;27;20888;-38
2021/09/08 11:58:35;;;;;;;8.97;8.17;;;25.70;98.20;;;;;;5121008;27;20428;-37
2021/09/08 12:01:08;;;;;;;8.87;7.97;;;25.70;96.40;;;;;;5129550;27;20432;-37
2021/09/08 12:03:42;;;;;;;9.63;8.50;;;25.60;96.70;;;;;;5129358;27;20416;-37
2021/09/08 12:06:22;;;;;;;8.77;7.97;;;25.70;97.30;;;;;;5129547;27;20519;-37
2021/09/08 12:08:54;;;;;;;8.23;7.40;;;25.60;97.10;;;;;;5128709;27;20682;-37
2021/09/08 12:11:39;;;;;;;10.37;8.90;;;25.70;97.40;;;;;;5125980;28;20999;-38
2021/09/08 12:14:14;;;;;;;8.60;7.90;;;25.80;97.40;;;;;;5122573;28;20413;-37
2021/09/08 12:16:39;;;;;;;8.87;8.10;;;25.80;96.60;;;;;;5108697;28;20922;-37
2021/09/08 12:19:12;;;;;;;8.33;7.53;;;25.80;96.10;;;;;;5128819;28;20423;-38
2021/09/08 12:21:37;;;;;;;9.23;8.33;;;25.70;96.30;;;;;;5127689;28;20251;-37
2021/09/08 12:24:27;;;;;;;9.13;7.70;;;25.80;96.10;;;;;;5128254;28;20918;-38
2021/09/08 12:26:53;;;;;;;8.57;7.77;;;25.80;97.00;;;;;;5104588;28;20199;-37
2021/09/08 12:29:19;;;;;;;8.80;7.30;;;25.80;96.40;;;;;;5124407;28;20502;-37
2021/09/08 12:32:02;;;;;;;8.03;7.23;;;25.80;95.50;;;;;;5123206;28;20464;-37